createdAt,value
2022-09-23T00:01:11.745Z,1.27
2022-09-23T00:03:41.961Z,0.90
2022-09-23T00:06:14.575Z,1.20
2022-09-23T00:08:41.776Z,1.13
2022-09-23T00:11:11.693Z,1.00
2022-09-23T00:13:41.292Z,1.10
2022-09-23T00:16:11.602Z,1.20
2022-09-23T00:18:38.928Z,1.00
2022-09-23T00:21:08.441Z,1.00
2022-09-23T00:23:35.550Z,1.05
2022-09-23T00:26:05.244Z,1.05
2022-09-23T00:28:33.211Z,0.90
2022-09-23T00:31:08.345Z,1.20
2022-09-23T00:33:35.320Z,1.05
2022-09-23T00:36:04.584Z,1.00
2022-09-23T00:38:32.254Z,0.93
2022-09-23T00:40:59.234Z,0.90
2022-09-23T00:43:46.740Z,1.00
2022-09-23T00:46:20.520Z,1.00
2022-09-23T00:48:50.752Z,1.08
2022-09-23T00:51:23.305Z,1.10
2022-09-23T00:53:52.284Z,1.10
2022-09-23T00:56:23.017Z,1.00
2022-09-23T00:58:51.467Z,1.00
2022-09-23T01:01:20.372Z,0.80
2022-09-23T01:03:47.688Z,0.88
2022-09-23T01:06:14.997Z,0.93
2022-09-23T01:08:45.867Z,0.90
2022-09-23T01:11:27.848Z,1.00
2022-09-23T01:14:17.315Z,0.93
2022-09-23T01:16:58.722Z,1.00
2022-09-23T01:20:03.455Z,0.85
2022-09-23T01:22:35.441Z,1.00
2022-09-23T01:25:42.688Z,1.08
2022-09-23T01:28:35.511Z,1.05
2022-09-23T01:31:15.785Z,1.00
2022-09-23T01:33:56.877Z,0.90
2022-09-23T01:36:34.203Z,1.00
2022-09-23T01:39:08.174Z,1.00
2022-09-23T01:41:59.743Z,1.00
2022-09-23T01:44:39.097Z,0.93
2022-09-23T01:47:14.164Z,1.00
2022-09-23T01:49:55.214Z,0.95
2022-09-23T01:52:32.631Z,0.90
2022-09-23T01:55:24.712Z,0.95
2022-09-23T01:58:08.386Z,1.10
2022-09-23T02:00:40.781Z,0.95
2022-09-23T02:03:26.935Z,0.80
2022-09-23T02:06:04.262Z,1.00
2022-09-23T02:08:45.108Z,0.90
2022-09-23T02:11:15.258Z,1.00
2022-09-23T02:13:58.847Z,0.90
2022-09-23T02:16:33.692Z,0.90
2022-09-23T02:19:08.748Z,0.90
2022-09-23T02:21:42.097Z,1.00
2022-09-23T02:24:17.080Z,1.00
2022-09-23T02:27:15.222Z,0.90
2022-09-23T02:30:02.401Z,0.85
2022-09-23T02:32:52.758Z,0.95
2022-09-23T02:35:25.624Z,0.90
2022-09-23T02:38:02.834Z,1.05
2022-09-23T02:40:38.715Z,0.90
2022-09-23T02:43:12.375Z,0.90
2022-09-23T02:45:39.302Z,0.90
2022-09-23T02:48:14.665Z,0.90
2022-09-23T02:50:41.691Z,0.90
2022-09-23T02:53:08.845Z,0.95
2022-09-23T02:55:35.597Z,1.10
2022-09-23T02:58:03.497Z,1.13
2022-09-23T03:00:40.521Z,1.10
2022-09-23T03:03:28.583Z,1.08
2022-09-23T03:05:59.496Z,1.10
2022-09-23T03:08:36.765Z,1.00
2022-09-23T03:11:08.588Z,1.20
2022-09-23T03:14:19.830Z,0.95
2022-09-23T03:16:50.278Z,1.08
2022-09-23T03:19:26.639Z,1.00
2022-09-23T03:22:20.477Z,1.05
2022-09-23T03:24:53.734Z,1.08
2022-09-23T03:27:32.419Z,1.00
2022-09-23T03:30:00.494Z,0.90
2022-09-23T03:32:29.294Z,0.90
2022-09-23T03:34:58.684Z,1.13
2022-09-23T03:37:26.233Z,0.95
2022-09-23T03:40:26.966Z,0.95
2022-09-23T03:42:56.268Z,0.82
2022-09-23T03:45:27.989Z,0.77
2022-09-23T03:47:55.072Z,0.80
2022-09-23T03:50:22.251Z,1.00
2022-09-23T03:52:52.487Z,1.02
2022-09-23T03:55:20.293Z,1.02
2022-09-23T03:57:47.808Z,1.00
2022-09-23T04:00:15.998Z,1.00
2022-09-23T04:02:43.306Z,0.93
2022-09-23T04:05:11.606Z,1.10
2022-09-23T04:07:39.359Z,1.10
2022-09-23T04:10:06.982Z,1.20
2022-09-23T04:12:33.776Z,1.13
2022-09-23T04:15:00.576Z,1.10
2022-09-23T04:17:27.410Z,1.13
2022-09-23T04:19:54.136Z,1.15
2022-09-23T04:22:21.193Z,1.25
2022-09-23T04:24:49.190Z,1.10
2022-09-23T04:27:16.043Z,1.30
2022-09-23T04:29:42.920Z,1.20
2022-09-23T04:32:10.155Z,1.10
2022-09-23T04:34:37.083Z,1.10
2022-09-23T04:37:03.983Z,1.30
2022-09-23T04:39:30.972Z,1.30
2022-09-23T04:41:57.837Z,1.23
2022-09-23T04:44:25.007Z,1.40
2022-09-23T04:46:51.887Z,1.23
2022-09-23T04:49:18.788Z,1.10
2022-09-23T04:51:45.690Z,1.10
2022-09-23T04:54:14.957Z,1.10
2022-09-23T04:56:42.567Z,1.17
2022-09-23T04:59:09.725Z,1.00
2022-09-23T05:01:38.294Z,1.30
2022-09-23T05:04:08.379Z,1.40
2022-09-23T05:06:36.080Z,1.40
2022-09-23T05:09:05.752Z,1.20
2022-09-23T05:11:33.612Z,1.10
2022-09-23T05:14:00.583Z,1.15
2022-09-23T05:16:27.571Z,1.20
2022-09-23T05:18:54.753Z,1.20
2022-09-23T05:21:23.757Z,1.20
2022-09-23T05:23:56.493Z,1.10
2022-09-23T05:26:25.736Z,1.48
2022-09-23T05:28:53.945Z,1.23
2022-09-23T05:31:24.050Z,1.40
2022-09-23T05:33:53.427Z,1.30
2022-09-23T05:36:21.687Z,1.10
2022-09-23T05:38:52.594Z,1.40
2022-09-23T05:41:22.815Z,1.10
2022-09-23T05:43:51.691Z,1.20
2022-09-23T05:46:21.133Z,1.30
2022-09-23T05:48:48.157Z,1.17
2022-09-23T05:51:21.097Z,1.20
2022-09-23T05:53:48.578Z,1.42
2022-09-23T05:56:17.825Z,1.30
2022-09-23T05:58:45.564Z,1.33
2022-09-23T06:01:14.609Z,1.30
2022-09-23T06:03:41.923Z,1.40
2022-09-23T06:06:14.528Z,1.48
2022-09-23T06:08:42.157Z,1.48
2022-09-23T06:11:09.048Z,1.38
2022-09-23T06:13:38.110Z,1.40
2022-09-23T06:16:10.823Z,1.58
2022-09-23T06:18:45.766Z,1.50
2022-09-23T06:23:45.016Z,1.60
2022-09-23T06:26:14.860Z,1.70
2022-09-23T06:28:43.190Z,1.50
2022-09-23T06:31:15.336Z,1.60
2022-09-23T06:33:43.446Z,1.73
2022-09-23T06:36:11.881Z,1.90
2022-09-23T06:38:40.088Z,1.58
2022-09-23T06:41:07.431Z,1.80
2022-09-23T06:43:34.376Z,2.10
2022-09-23T06:46:04.154Z,2.22
2022-09-23T06:48:35.150Z,1.83
2022-09-23T06:51:05.133Z,1.80
2022-09-23T06:53:32.473Z,1.60
2022-09-23T06:56:05.205Z,1.90
2022-09-23T06:58:33.067Z,2.00
2022-09-23T07:01:05.055Z,1.85
2022-09-23T07:03:32.148Z,1.63
2022-09-23T07:05:59.814Z,1.50
2022-09-23T07:08:28.397Z,1.92
2022-09-23T07:10:56.900Z,2.30
2022-09-23T07:13:24.214Z,2.00
2022-09-23T07:15:58.400Z,1.83
2022-09-23T07:18:26.743Z,1.90
2022-09-23T07:20:58.351Z,1.80
2022-09-23T07:23:25.798Z,1.90
2022-09-23T07:25:52.786Z,2.20
2022-09-23T07:28:20.440Z,2.72
2022-09-23T07:30:58.608Z,2.17
2022-09-23T07:33:33.216Z,1.90
2022-09-23T07:36:07.158Z,1.95
2022-09-23T07:38:34.261Z,1.92
2022-09-23T07:41:03.999Z,1.80
2022-09-23T07:43:32.492Z,1.60
2022-09-23T07:46:16.477Z,1.58
2022-09-23T07:48:44.531Z,1.60
2022-09-23T07:51:22.647Z,1.50
2022-09-23T07:53:54.659Z,1.23
2022-09-23T07:56:24.811Z,1.15
2022-09-23T07:59:01.000Z,1.20
2022-09-23T08:01:30.141Z,1.30
2022-09-23T08:03:58.756Z,1.13
2022-09-23T08:06:25.636Z,1.00
2022-09-23T08:08:53.620Z,1.23
2022-09-23T08:11:20.556Z,1.50
2022-09-23T08:13:47.711Z,1.10
2022-09-23T08:16:14.598Z,1.23
2022-09-23T08:18:45.228Z,1.00
2022-09-23T08:21:12.305Z,1.00
2022-09-23T08:23:39.148Z,0.88
2022-09-23T08:26:11.642Z,1.10
2022-09-23T08:28:43.514Z,1.27
2022-09-23T08:31:10.536Z,1.00
2022-09-23T08:33:37.642Z,1.20
2022-09-23T08:36:04.706Z,0.98
2022-09-23T08:38:31.547Z,1.70
2022-09-23T08:41:25.950Z,1.40
2022-09-23T08:43:57.692Z,1.23
2022-09-23T08:46:35.115Z,1.30
2022-09-23T08:49:02.310Z,1.25
2022-09-23T08:51:40.110Z,2.38
2022-09-23T08:54:13.238Z,3.10
2022-09-23T08:56:43.518Z,2.22
2022-09-23T08:59:17.096Z,2.30
2022-09-23T09:01:52.634Z,1.70
2022-09-23T09:04:44.650Z,1.83
2022-09-23T09:10:25.468Z,1.40
2022-09-23T09:13:34.622Z,1.20
2022-09-23T09:16:16.664Z,2.10
2022-09-23T09:18:55.193Z,1.73
2022-09-23T09:21:37.099Z,1.58
2022-09-23T09:24:09.394Z,2.28
2022-09-23T09:26:37.686Z,1.77
2022-09-23T09:29:31.322Z,2.08
2022-09-23T09:32:07.715Z,1.70
2022-09-23T09:34:41.256Z,1.50
2022-09-23T09:37:19.940Z,1.30
2022-09-23T09:39:46.979Z,1.00
2022-09-23T09:42:35.383Z,1.27
2022-09-23T09:45:04.479Z,1.50
2022-09-23T09:47:40.479Z,1.40
2022-09-23T09:50:10.587Z,1.20
2022-09-23T09:52:44.088Z,1.50
2022-09-23T09:55:13.923Z,1.30
2022-09-23T09:57:46.455Z,1.50
2022-09-23T10:00:22.076Z,1.60
2022-09-23T10:02:53.705Z,1.38
2022-09-23T10:05:43.938Z,1.17
2022-09-23T10:08:35.237Z,1.30
2022-09-23T10:11:03.764Z,1.17
2022-09-23T10:13:31.561Z,1.13
2022-09-23T10:16:01.243Z,1.15
2022-09-23T10:18:32.509Z,1.50
2022-09-23T10:21:07.121Z,1.30
2022-09-23T10:23:38.408Z,1.40
2022-09-23T10:26:08.214Z,1.30
2022-09-23T10:28:55.537Z,1.33
2022-09-23T10:31:26.669Z,1.30
2022-09-23T10:34:00.340Z,1.15
2022-09-23T10:36:33.301Z,1.02
2022-09-23T10:39:22.572Z,1.35
2022-09-23T10:42:25.522Z,1.60
2022-09-23T10:45:22.791Z,1.25
2022-09-23T10:48:16.886Z,1.05
2022-09-23T10:50:54.061Z,1.33
2022-09-23T10:53:36.145Z,1.38
2022-09-23T10:56:23.946Z,1.25
2022-09-23T10:59:27.052Z,1.10
2022-09-23T11:02:21.915Z,1.20
2022-09-23T11:04:50.957Z,1.23
2022-09-23T11:07:20.740Z,1.15
2022-09-23T11:10:35.338Z,1.10
2022-09-23T11:13:15.318Z,1.27
2022-09-23T11:16:19.229Z,1.10
2022-09-23T11:18:58.160Z,1.13
2022-09-23T11:21:58.248Z,1.02
2022-09-23T11:24:36.003Z,1.00
2022-09-23T11:27:46.899Z,1.05
2022-09-23T11:30:17.958Z,1.10
2022-09-23T11:32:48.205Z,1.20
2022-09-23T11:35:25.882Z,0.98
2022-09-23T11:38:01.419Z,0.85
2022-09-23T11:40:33.567Z,0.90
2022-09-23T11:43:15.949Z,0.85
2022-09-23T11:45:51.231Z,1.15
2022-09-23T11:48:36.792Z,1.10
2022-09-23T11:51:07.109Z,0.90
2022-09-23T11:53:38.334Z,1.40
2022-09-23T11:56:16.294Z,1.00
2022-09-23T11:59:00.152Z,1.00
2022-09-23T12:01:37.651Z,1.00
2022-09-23T12:04:21.010Z,1.05
2022-09-23T12:07:24.253Z,0.80
2022-09-23T12:10:03.767Z,1.10
2022-09-23T12:13:05.289Z,1.10
2022-09-23T12:15:59.201Z,0.93
2022-09-23T12:18:53.197Z,0.95
2022-09-23T12:21:45.745Z,1.00
2022-09-23T12:24:43.615Z,1.00
2022-09-23T12:27:24.340Z,1.00
2022-09-23T12:30:03.098Z,0.80
2022-09-23T12:32:31.002Z,1.00
2022-09-23T12:35:00.028Z,1.20
2022-09-23T12:37:33.912Z,1.38
2022-09-23T12:40:16.627Z,1.10
2022-09-23T12:42:46.340Z,1.10
2022-09-23T12:45:39.659Z,1.27
2022-09-23T12:48:18.594Z,0.90
2022-09-23T12:51:01.803Z,1.10
2022-09-23T12:53:34.868Z,1.30
2022-09-23T12:56:17.547Z,1.00
2022-09-23T12:58:44.280Z,1.50
2022-09-23T13:01:22.785Z,0.95
2022-09-23T13:04:12.564Z,1.20
2022-09-23T13:06:46.682Z,1.10
2022-09-23T13:09:19.043Z,0.90
2022-09-23T13:11:48.061Z,0.90
2022-09-23T13:14:27.246Z,0.90
2022-09-23T13:16:56.991Z,0.90
2022-09-23T13:19:26.720Z,1.00
2022-09-23T13:21:53.513Z,0.90
2022-09-23T13:24:23.009Z,1.20
2022-09-23T13:26:54.982Z,1.75
2022-09-23T13:29:55.586Z,1.13
2022-09-23T13:32:44.812Z,1.00
2022-09-23T13:35:32.283Z,1.10
2022-09-23T13:37:59.074Z,0.90
2022-09-23T13:40:28.819Z,0.80
2022-09-23T13:43:05.292Z,0.90
2022-09-23T13:45:36.700Z,0.90
2022-09-23T13:48:15.425Z,0.90
2022-09-23T13:50:50.880Z,0.82
2022-09-23T13:53:27.354Z,1.02
2022-09-23T13:56:03.530Z,0.85
2022-09-23T13:58:32.167Z,0.80
2022-09-23T14:00:59.561Z,0.90
2022-09-23T14:03:35.364Z,0.80
2022-09-23T14:06:14.316Z,0.90
2022-09-23T14:08:45.089Z,1.00
2022-09-23T14:11:20.465Z,0.75
2022-09-23T14:13:51.630Z,1.10
2022-09-23T14:16:19.654Z,0.80
2022-09-23T14:18:49.585Z,0.80
2022-09-23T14:21:36.441Z,1.10
2022-09-23T14:24:20.514Z,0.90
2022-09-23T14:27:08.437Z,1.00
2022-09-23T14:29:41.179Z,1.02
2022-09-23T14:32:21.007Z,0.93
2022-09-23T14:34:59.641Z,1.20
2022-09-23T14:37:57.205Z,1.20
2022-09-23T14:40:36.802Z,1.10
2022-09-23T14:43:17.266Z,1.33
2022-09-23T14:45:47.322Z,1.00
2022-09-23T14:48:22.864Z,1.20
2022-09-23T14:50:59.253Z,0.90
2022-09-23T14:53:29.050Z,0.90
2022-09-23T14:56:07.411Z,0.95
2022-09-23T14:58:52.261Z,0.70
2022-09-23T15:01:31.443Z,0.90
2022-09-23T15:04:15.621Z,0.90
2022-09-23T15:06:47.576Z,1.00
2022-09-23T15:09:32.286Z,0.93
2022-09-23T15:12:21.183Z,0.70
2022-09-23T15:14:54.708Z,0.60
2022-09-23T15:17:38.469Z,0.80
2022-09-23T15:20:08.930Z,0.90
2022-09-23T15:22:56.019Z,1.00
2022-09-23T15:25:32.858Z,0.80
2022-09-23T15:27:59.530Z,1.00
2022-09-23T15:30:26.790Z,0.85
2022-09-23T15:32:53.772Z,0.70
2022-09-23T15:35:25.554Z,0.60
2022-09-23T15:37:57.104Z,0.77
2022-09-23T15:40:42.096Z,0.52
2022-09-23T15:43:20.516Z,0.70
2022-09-23T15:45:59.810Z,0.50
2022-09-23T15:48:36.455Z,0.50
2022-09-23T15:51:06.864Z,0.70
2022-09-23T15:53:34.441Z,0.70
2022-09-23T15:56:01.510Z,1.00
2022-09-23T15:58:28.506Z,1.30
2022-09-23T16:00:57.121Z,1.08
2022-09-23T16:03:28.272Z,1.13
2022-09-23T16:05:58.160Z,1.00
2022-09-23T16:08:25.731Z,0.95
2022-09-23T16:10:54.792Z,1.08
2022-09-23T16:13:21.802Z,1.10
2022-09-23T16:15:48.625Z,0.98
2022-09-23T16:18:15.523Z,0.70
2022-09-23T16:20:44.712Z,0.80
2022-09-23T16:23:37.000Z,0.80
2022-09-23T16:26:24.683Z,0.60
2022-09-23T16:28:53.991Z,0.70
2022-09-23T16:31:22.258Z,0.57
2022-09-23T16:33:51.314Z,0.60
2022-09-23T16:36:23.929Z,0.60
2022-09-23T16:38:50.800Z,0.60
2022-09-23T16:41:17.533Z,0.60
2022-09-23T16:43:44.390Z,0.57
2022-09-23T16:46:12.725Z,0.63
2022-09-23T16:48:40.862Z,0.57
2022-09-23T16:51:20.515Z,0.50
2022-09-23T16:53:52.119Z,0.52
2022-09-23T16:56:25.816Z,0.63
2022-09-23T16:58:55.538Z,0.47
2022-09-23T17:01:43.568Z,0.60
2022-09-23T17:04:10.930Z,0.55
2022-09-23T17:06:49.931Z,0.50
2022-09-23T17:09:19.877Z,0.50
2022-09-23T17:11:48.799Z,0.75
2022-09-23T17:14:16.086Z,0.60
2022-09-23T17:16:43.063Z,0.60
2022-09-23T17:19:11.908Z,0.50
2022-09-23T17:21:39.285Z,0.90
2022-09-23T17:24:06.349Z,0.80
2022-09-23T17:26:33.600Z,0.90
2022-09-23T17:29:02.103Z,0.70
2022-09-23T17:31:30.108Z,0.70
2022-09-23T17:33:56.874Z,0.82
2022-09-23T17:36:23.722Z,0.60
2022-09-23T17:38:53.566Z,0.80
2022-09-23T17:41:20.867Z,0.50
2022-09-23T17:43:48.369Z,0.63
2022-09-23T17:46:19.033Z,0.70
2022-09-23T17:48:46.993Z,0.60
2022-09-23T17:51:16.207Z,0.60
2022-09-23T17:53:45.297Z,0.60
2022-09-23T17:56:14.977Z,0.50
2022-09-23T17:58:42.590Z,0.80
2022-09-23T18:01:12.477Z,0.80
2022-09-23T18:03:43.338Z,0.50
2022-09-23T18:06:18.907Z,0.75
2022-09-23T18:08:47.798Z,0.50
2022-09-23T18:11:17.354Z,0.70
2022-09-23T18:13:49.527Z,0.70
2022-09-23T18:16:17.107Z,0.90
2022-09-23T18:18:44.637Z,0.65
2022-09-23T18:21:11.453Z,0.70
2022-09-23T18:23:38.186Z,0.60
2022-09-23T18:26:12.839Z,0.73
2022-09-23T18:28:40.045Z,0.70
2022-09-23T18:31:06.809Z,0.90
2022-09-23T18:33:33.576Z,0.80
2022-09-23T18:36:01.400Z,0.70
2022-09-23T18:38:28.418Z,0.60
2022-09-23T18:40:57.632Z,0.60
2022-09-23T18:43:39.364Z,0.73
2022-09-23T18:46:12.669Z,0.70
2022-09-23T18:48:59.068Z,0.90
2022-09-23T18:51:29.052Z,0.90
2022-09-23T18:54:00.034Z,0.70
2022-09-23T18:56:42.019Z,0.80
2022-09-23T18:59:14.367Z,0.82
2022-09-23T19:01:41.725Z,0.88
2022-09-23T19:04:08.811Z,0.88
2022-09-23T19:06:37.521Z,2.58
2022-09-23T19:09:07.091Z,2.20
2022-09-23T19:11:36.716Z,1.40
2022-09-23T19:14:06.607Z,1.30
2022-09-23T19:16:35.400Z,1.13
2022-09-23T19:19:04.085Z,1.10
2022-09-23T19:21:31.764Z,0.93
2022-09-23T19:24:03.447Z,1.00
2022-09-23T19:26:38.943Z,1.00
2022-09-23T19:29:08.344Z,0.98
2022-09-23T19:31:40.210Z,0.82
2022-09-23T19:34:12.470Z,0.90
2022-09-23T19:36:42.109Z,1.10
2022-09-23T19:39:19.746Z,1.15
2022-09-23T19:41:47.154Z,0.90
2022-09-23T19:44:14.775Z,1.00
2022-09-23T19:46:45.001Z,0.90
2022-09-23T19:49:12.401Z,0.93
2022-09-23T19:51:39.872Z,0.80
2022-09-23T19:54:08.946Z,1.00
2022-09-23T19:56:36.450Z,1.10
2022-09-23T19:59:06.811Z,0.90
2022-09-23T20:01:34.320Z,1.10
2022-09-23T20:04:02.014Z,0.85
2022-09-23T20:06:30.755Z,1.20
2022-09-23T20:08:59.448Z,1.20
2022-09-23T20:11:28.645Z,1.33
2022-09-23T20:14:03.974Z,1.42
2022-09-23T20:16:33.294Z,1.63
2022-09-23T20:19:01.284Z,1.90
2022-09-23T20:21:29.652Z,1.85
2022-09-23T20:23:57.762Z,1.77
2022-09-23T20:26:43.480Z,1.90
2022-09-23T20:29:11.201Z,1.77
2022-09-23T20:31:40.323Z,1.30
2022-09-23T20:34:10.471Z,1.52
2022-09-23T20:36:39.508Z,1.42
2022-09-23T20:39:06.820Z,1.60
2022-09-23T20:41:37.708Z,2.33
2022-09-23T20:44:07.832Z,2.75
2022-09-23T20:46:35.778Z,2.38
2022-09-23T20:49:03.851Z,2.17
2022-09-23T20:51:33.242Z,2.00
2022-09-23T20:54:00.632Z,1.95
2022-09-23T20:56:29.092Z,1.70
2022-09-23T20:59:00.151Z,2.00
2022-09-23T21:01:36.305Z,2.15
2022-09-23T21:04:17.216Z,2.22
2022-09-23T21:06:50.345Z,2.40
2022-09-23T21:09:30.883Z,2.40
2022-09-23T21:11:59.152Z,2.30
2022-09-23T21:14:26.117Z,2.30
2022-09-23T21:16:54.729Z,2.45
2022-09-23T21:19:28.298Z,2.22
2022-09-23T21:21:55.212Z,2.28
2022-09-23T21:25:03.479Z,2.42
2022-09-23T21:27:14.068Z,2.20
2022-09-23T21:29:54.321Z,2.25
2022-09-23T21:32:27.998Z,2.67
2022-09-23T21:34:55.044Z,2.20
2022-09-23T21:37:22.418Z,2.60
2022-09-23T21:40:08.254Z,2.28
2022-09-23T21:42:35.389Z,2.45
2022-09-23T21:45:05.165Z,2.45
2022-09-23T21:47:32.425Z,2.38
2022-09-23T21:49:59.332Z,2.35
2022-09-23T21:52:26.227Z,2.53
2022-09-23T21:54:52.947Z,2.40
2022-09-23T21:57:19.730Z,2.60
2022-09-23T21:59:47.363Z,2.50
2022-09-23T22:02:14.229Z,2.50
2022-09-23T22:04:41.174Z,2.50
2022-09-23T22:07:07.968Z,2.22
2022-09-23T22:09:35.197Z,2.53
2022-09-23T22:12:09.853Z,2.78
2022-09-23T22:14:38.814Z,2.63
2022-09-23T22:17:07.726Z,2.78
2022-09-23T22:19:40.316Z,2.80
2022-09-23T22:22:13.306Z,2.70
2022-09-23T22:24:45.247Z,2.60
2022-09-23T22:27:20.373Z,2.70
2022-09-23T22:30:06.017Z,2.80
2022-09-23T22:32:35.658Z,3.25
2022-09-23T22:35:03.116Z,2.95
2022-09-23T22:37:34.261Z,3.00
2022-09-23T22:40:02.527Z,2.90
2022-09-23T22:42:30.487Z,2.95
2022-09-23T22:44:57.474Z,3.10
2022-09-23T22:47:24.437Z,2.70
2022-09-23T22:49:54.422Z,2.72
2022-09-23T22:52:24.431Z,3.13
2022-09-23T22:54:52.397Z,2.50
2022-09-23T22:57:21.092Z,2.50
2022-09-23T22:59:56.657Z,2.80
2022-09-23T23:02:29.682Z,2.55
2022-09-23T23:05:08.832Z,2.47
2022-09-23T23:07:36.205Z,2.60
2022-09-23T23:10:07.228Z,2.20
2022-09-23T23:12:33.991Z,2.20
2022-09-23T23:15:00.721Z,2.30
2022-09-23T23:17:33.113Z,2.35
2022-09-23T23:20:00.111Z,2.42
2022-09-23T23:22:28.430Z,2.25
2022-09-23T23:24:55.261Z,2.53
2022-09-23T23:27:22.401Z,2.20
2022-09-23T23:29:49.417Z,2.25
2022-09-23T23:32:17.035Z,2.15
2022-09-23T23:34:43.974Z,2.20
2022-09-23T23:37:11.066Z,2.22
2022-09-23T23:39:37.784Z,2.20
2022-09-23T23:42:04.833Z,2.10
2022-09-23T23:44:34.359Z,2.00
2022-09-23T23:47:01.717Z,2.42
2022-09-23T23:49:29.210Z,2.50
2022-09-23T23:51:56.364Z,2.33
2022-09-23T23:54:23.209Z,2.30
2022-09-23T23:56:50.118Z,2.20
2022-09-23T23:59:19.613Z,2.30
